createdAt,value
2019-01-31T00:01:46.890Z,53.73
2019-01-31T00:04:39.663Z,53.37
2019-01-31T00:07:49.815Z,53.03
2019-01-31T00:10:47.069Z,53.27
2019-01-31T00:13:45.666Z,52.30
2019-01-31T00:16:44.697Z,54.53
2019-01-31T00:19:43.314Z,53.93
2019-01-31T00:23:03.944Z,55.33
2019-01-31T00:26:04.142Z,52.37
2019-01-31T00:28:57.888Z,52.10
2019-01-31T00:31:43.841Z,52.73
2019-01-31T00:34:45.116Z,52.93
2019-01-31T00:37:28.187Z,54.40
2019-01-31T00:40:34.249Z,53.67
2019-01-31T00:43:55.916Z,52.97
2019-01-31T00:46:49.573Z,52.13
2019-01-31T00:50:00.884Z,55.27
2019-01-31T00:53:10.565Z,51.10
2019-01-31T00:55:57.000Z,54.20
2019-01-31T00:58:46.398Z,51.43
2019-01-31T01:01:58.226Z,54.23
2019-01-31T01:05:12.715Z,53.37
2019-01-31T01:08:05.344Z,55.20
2019-01-31T01:11:24.062Z,54.00
2019-01-31T01:14:49.856Z,53.70
2019-01-31T01:17:33.454Z,53.27
2019-01-31T01:20:18.099Z,53.20
2019-01-31T01:22:57.690Z,53.83
2019-01-31T01:25:47.274Z,53.90
2019-01-31T01:28:43.689Z,52.90
2019-01-31T01:31:33.482Z,50.73
2019-01-31T01:34:30.566Z,54.90
2019-01-31T01:37:31.757Z,53.57
2019-01-31T01:40:32.502Z,52.33
2019-01-31T01:43:35.104Z,52.97
2019-01-31T01:46:56.243Z,54.67
2019-01-31T01:49:42.179Z,52.30
2019-01-31T01:52:42.808Z,53.60
2019-01-31T01:55:43.692Z,53.63
2019-01-31T01:58:50.305Z,54.73
2019-01-31T02:02:07.095Z,55.40
2019-01-31T02:05:24.489Z,55.50
2019-01-31T02:08:22.930Z,53.83
2019-01-31T02:11:12.510Z,54.20
2019-01-31T02:14:20.090Z,53.33
2019-01-31T02:17:20.006Z,53.47
2019-01-31T02:20:25.392Z,53.57
2019-01-31T02:23:31.622Z,52.73
2019-01-31T02:26:54.713Z,55.30
2019-01-31T02:30:05.953Z,53.33
2019-01-31T02:33:45.871Z,53.73
2019-01-31T02:36:52.984Z,53.83
2019-01-31T02:39:56.778Z,51.27
2019-01-31T02:42:33.338Z,52.30
2019-01-31T02:45:26.591Z,52.07
2019-01-31T02:48:05.205Z,53.17
2019-01-31T02:51:02.579Z,55.43
2019-01-31T02:53:58.488Z,52.13
2019-01-31T02:56:56.199Z,55.07
2019-01-31T03:00:15.430Z,51.40
2019-01-31T03:03:14.936Z,52.60
2019-01-31T03:06:18.640Z,50.70
2019-01-31T03:09:13.584Z,52.17
2019-01-31T03:11:55.027Z,51.23
2019-01-31T03:14:41.158Z,52.03
2019-01-31T03:18:05.617Z,51.93
2019-01-31T03:21:21.617Z,50.07
2019-01-31T03:24:09.493Z,50.73
2019-01-31T03:26:57.083Z,50.43
2019-01-31T03:30:14.685Z,50.90
2019-01-31T03:33:05.088Z,50.10
2019-01-31T03:36:17.658Z,50.47
2019-01-31T03:39:12.156Z,49.70
2019-01-31T03:42:18.184Z,50.77
2019-01-31T03:45:42.921Z,47.57
2019-01-31T03:48:25.062Z,47.83
2019-01-31T03:51:18.880Z,48.20
2019-01-31T03:54:02.592Z,46.97
2019-01-31T03:56:51.458Z,49.60
2019-01-31T03:59:42.956Z,47.93
2019-01-31T04:02:48.839Z,48.60
2019-01-31T04:05:46.736Z,47.90
2019-01-31T04:08:18.109Z,49.17
2019-01-31T04:10:49.577Z,48.60
2019-01-31T04:13:20.978Z,47.43
2019-01-31T04:15:52.403Z,46.33
2019-01-31T04:18:23.664Z,54.20
2019-01-31T04:20:54.709Z,50.93
2019-01-31T04:23:25.169Z,48.93
2019-01-31T04:25:56.253Z,48.53
2019-01-31T04:28:30.561Z,52.40
2019-01-31T04:31:01.102Z,49.77
2019-01-31T04:33:32.312Z,47.40
2019-01-31T04:36:03.697Z,49.30
2019-01-31T04:38:35.566Z,48.60
2019-01-31T04:41:07.273Z,50.50
2019-01-31T04:43:38.170Z,48.20
2019-01-31T04:46:09.392Z,48.93
2019-01-31T04:48:40.981Z,48.20
2019-01-31T04:51:12.273Z,48.93
2019-01-31T04:53:43.357Z,48.43
2019-01-31T04:56:14.493Z,48.90
2019-01-31T04:58:45.214Z,46.53
2019-01-31T05:01:16.345Z,44.57
2019-01-31T05:03:49.125Z,46.90
2019-01-31T05:06:20.424Z,44.83
2019-01-31T05:08:52.193Z,43.83
2019-01-31T05:11:24.617Z,45.80
2019-01-31T05:16:51.269Z,43.73
2019-01-31T05:19:22.129Z,44.50
2019-01-31T05:21:53.385Z,46.17
2019-01-31T05:24:24.159Z,47.60
2019-01-31T05:26:56.333Z,45.20
2019-01-31T05:29:33.163Z,45.37
2019-01-31T05:32:06.998Z,44.33
2019-01-31T05:34:37.940Z,45.10
2019-01-31T05:37:24.297Z,46.30
2019-01-31T05:40:03.235Z,45.03
2019-01-31T05:42:36.748Z,46.07
2019-01-31T05:45:09.292Z,47.77
2019-01-31T05:47:40.441Z,47.23
2019-01-31T05:50:15.255Z,46.10
2019-01-31T05:52:59.360Z,45.70
2019-01-31T05:55:30.019Z,44.43
2019-01-31T05:58:00.652Z,42.47
2019-01-31T06:00:35.610Z,43.40
2019-01-31T06:03:17.385Z,49.37
2019-01-31T06:05:52.222Z,45.53
2019-01-31T06:08:24.489Z,43.37
2019-01-31T06:11:07.542Z,45.63
2019-01-31T06:13:45.150Z,47.70
2019-01-31T06:16:23.767Z,49.60
2019-01-31T06:19:03.954Z,48.00
2019-01-31T06:21:44.880Z,50.77
2019-01-31T06:24:25.126Z,49.13
2019-01-31T06:27:04.989Z,47.03
2019-01-31T06:29:57.336Z,48.60
2019-01-31T06:32:46.221Z,48.50
2019-01-31T06:41:44.170Z,45.87
2019-01-31T06:44:21.232Z,46.67
2019-01-31T06:47:23.160Z,46.53
2019-01-31T06:50:00.596Z,48.37
2019-01-31T06:52:45.439Z,46.13
2019-01-31T06:55:16.877Z,48.20
2019-01-31T06:57:52.236Z,49.00
2019-01-31T07:00:31.665Z,47.90
2019-01-31T07:03:02.727Z,47.30
2019-01-31T07:05:39.165Z,48.57
2019-01-31T07:14:08.084Z,44.30
2019-01-31T07:16:39.123Z,47.13
2019-01-31T07:19:19.140Z,46.50
2019-01-31T07:22:04.554Z,48.53
2019-01-31T07:25:02.712Z,44.67
2019-01-31T07:27:37.525Z,44.80
2019-01-31T07:30:13.784Z,47.80
2019-01-31T07:32:47.892Z,48.10
2019-01-31T07:35:38.436Z,47.37
2019-01-31T07:38:14.247Z,45.93
2019-01-31T07:40:47.587Z,47.10
2019-01-31T07:43:47.856Z,51.53
2019-01-31T07:46:26.332Z,47.13
2019-01-31T07:49:06.116Z,48.40
2019-01-31T07:51:35.231Z,45.33
2019-01-31T07:54:08.382Z,46.53
2019-01-31T07:56:46.565Z,46.00
2019-01-31T07:59:48.514Z,48.47
2019-01-31T08:02:31.172Z,45.33
2019-01-31T08:08:22.702Z,43.50
2019-01-31T08:11:06.245Z,48.47
2019-01-31T08:16:35.772Z,44.53
2019-01-31T08:19:09.697Z,45.27
2019-01-31T08:21:41.340Z,46.93
2019-01-31T08:24:13.828Z,49.80
2019-01-31T08:26:47.449Z,50.43
2019-01-31T08:29:33.444Z,46.53
2019-01-31T08:32:18.712Z,49.07
2019-01-31T08:34:54.631Z,49.63
2019-01-31T08:37:33.593Z,50.03
2019-01-31T08:40:18.267Z,47.47
2019-01-31T08:42:52.301Z,48.77
2019-01-31T08:45:28.830Z,47.97
2019-01-31T08:48:13.320Z,45.43
2019-01-31T08:51:25.017Z,45.00
2019-01-31T08:53:28.981Z,47.60
2019-01-31T08:56:12.562Z,45.07
2019-01-31T08:58:44.342Z,46.50
2019-01-31T09:01:28.893Z,50.50
2019-01-31T09:04:22.999Z,49.33
2019-01-31T09:07:00.629Z,49.93
2019-01-31T09:09:31.680Z,48.07
2019-01-31T09:12:14.975Z,49.87
2019-01-31T09:14:54.780Z,48.37
2019-01-31T09:17:45.077Z,50.80
2019-01-31T09:26:54.516Z,54.60
2019-01-31T09:29:44.445Z,50.77
2019-01-31T09:32:38.789Z,53.47
2019-01-31T09:38:39.191Z,53.03
2019-01-31T09:41:26.815Z,52.80
2019-01-31T09:44:37.712Z,47.17
2019-01-31T09:48:03.536Z,49.37
2019-01-31T09:50:58.356Z,49.13
2019-01-31T09:54:06.361Z,47.30
2019-01-31T09:57:07.033Z,46.60
2019-01-31T10:00:27.511Z,49.23
2019-01-31T10:03:41.512Z,50.17
2019-01-31T10:07:20.308Z,47.47
2019-01-31T10:10:40.251Z,48.57
2019-01-31T10:16:41.485Z,49.10
2019-01-31T10:19:41.448Z,50.43
2019-01-31T10:23:07.937Z,47.43
2019-01-31T10:25:08.129Z,47.77
2019-01-31T10:26:00.632Z,46.63
2019-01-31T10:29:21.494Z,45.13
2019-01-31T10:32:20.005Z,50.00
2019-01-31T10:38:20.917Z,46.07
2019-01-31T10:41:21.937Z,47.13
2019-01-31T10:44:51.140Z,46.47
2019-01-31T10:48:05.605Z,45.90
2019-01-31T10:51:01.126Z,48.97
2019-01-31T10:54:01.751Z,46.97
2019-01-31T10:57:21.150Z,45.07
2019-01-31T11:04:04.240Z,50.00
2019-01-31T11:07:18.445Z,51.73
2019-01-31T11:10:41.333Z,49.30
2019-01-31T11:13:47.402Z,50.80
2019-01-31T11:16:48.421Z,57.30
2019-01-31T11:19:50.587Z,50.43
2019-01-31T11:23:18.355Z,51.03
2019-01-31T11:26:34.046Z,49.53
2019-01-31T11:29:37.233Z,48.67
2019-01-31T11:32:47.298Z,46.80
2019-01-31T11:35:58.682Z,49.23
2019-01-31T11:39:15.361Z,46.03
2019-01-31T11:42:16.913Z,43.77
2019-01-31T11:45:14.944Z,42.27
2019-01-31T11:48:18.873Z,46.33
2019-01-31T11:51:39.446Z,57.83
2019-01-31T11:54:55.199Z,71.00
2019-01-31T11:57:57.068Z,93.27
2019-01-31T12:00:28.385Z,83.50
2019-01-31T12:03:02.869Z,88.03
2019-01-31T12:05:34.215Z,80.97
2019-01-31T12:08:05.764Z,73.93
2019-01-31T12:10:38.022Z,51.37
2019-01-31T12:13:08.585Z,54.40
2019-01-31T12:15:41.351Z,50.60
2019-01-31T12:18:13.342Z,46.40
2019-01-31T12:20:44.355Z,48.80
2019-01-31T12:23:14.905Z,44.63
2019-01-31T12:25:47.732Z,57.47
2019-01-31T12:28:19.129Z,47.37
2019-01-31T12:30:51.693Z,44.93
2019-01-31T12:33:23.170Z,45.43
2019-01-31T12:35:54.052Z,89.77
2019-01-31T12:38:24.720Z,81.13
2019-01-31T12:40:59.811Z,52.20
2019-01-31T12:43:35.189Z,54.60
2019-01-31T12:46:04.231Z,49.20
2019-01-31T12:48:37.553Z,46.07
2019-01-31T12:51:08.561Z,53.73
2019-01-31T12:53:39.582Z,46.40
2019-01-31T12:56:11.098Z,38.23
2019-01-31T12:58:43.622Z,41.97
2019-01-31T13:01:16.642Z,41.37
2019-01-31T13:03:49.564Z,37.97
2019-01-31T13:06:23.632Z,43.03
2019-01-31T13:08:54.317Z,42.47
2019-01-31T13:11:27.069Z,38.57
2019-01-31T13:13:57.665Z,41.10
2019-01-31T13:16:28.307Z,35.77
2019-01-31T13:18:59.541Z,41.60
2019-01-31T13:21:32.720Z,40.77
2019-01-31T13:24:03.626Z,42.53
2019-01-31T13:26:34.514Z,94.80
2019-01-31T13:29:07.068Z,72.73
2019-01-31T13:31:39.981Z,61.67
2019-01-31T13:34:10.377Z,50.67
2019-01-31T13:36:42.185Z,50.47
2019-01-31T13:39:15.483Z,47.57
2019-01-31T13:41:46.357Z,47.60
2019-01-31T14:00:27.008Z,49.17
2019-01-31T14:02:57.977Z,49.53
2019-01-31T14:05:30.077Z,47.53
2019-01-31T14:08:01.019Z,47.07
2019-01-31T14:10:32.616Z,48.17
2019-01-31T14:13:04.917Z,49.60
2019-01-31T14:15:44.074Z,49.93
2019-01-31T14:18:14.585Z,46.47
2019-01-31T14:20:45.213Z,45.50
2019-01-31T14:23:19.108Z,47.27
2019-01-31T14:25:49.955Z,47.07
2019-01-31T14:31:25.524Z,44.83
2019-01-31T14:33:56.518Z,45.87
2019-01-31T14:36:27.309Z,41.80
2019-01-31T14:39:01.400Z,41.37
2019-01-31T14:41:32.635Z,43.97
2019-01-31T14:44:03.451Z,42.97
2019-01-31T14:46:34.579Z,41.50
2019-01-31T14:49:05.199Z,43.57
2019-01-31T14:51:36.371Z,43.93
2019-01-31T14:54:06.975Z,42.47
2019-01-31T14:56:38.948Z,40.87
2019-01-31T14:59:10.916Z,41.87
2019-01-31T15:01:41.997Z,40.93
2019-01-31T15:04:12.653Z,44.43
2019-01-31T15:06:43.160Z,40.37
2019-01-31T15:12:17.666Z,40.60
2019-01-31T15:14:48.646Z,40.63
2019-01-31T15:17:19.558Z,41.17
2019-01-31T15:19:50.845Z,44.57
2019-01-31T15:22:21.452Z,41.47
2019-01-31T15:24:52.464Z,42.63
2019-01-31T15:27:23.198Z,46.10
2019-01-31T15:29:54.330Z,57.77
2019-01-31T15:32:25.239Z,64.97
2019-01-31T15:34:56.382Z,63.40
2019-01-31T15:37:27.252Z,65.17
2019-01-31T15:40:00.053Z,66.00
2019-01-31T15:42:31.062Z,63.90
2019-01-31T15:45:01.485Z,66.40
2019-01-31T15:47:32.103Z,66.70
2019-01-31T15:50:04.983Z,64.97
2019-01-31T15:52:37.197Z,85.70
2019-01-31T15:55:08.622Z,78.17
2019-01-31T15:57:41.698Z,72.83
2019-01-31T16:00:40.613Z,68.30
2019-01-31T16:03:31.131Z,68.37
2019-01-31T16:06:02.098Z,68.80
2019-01-31T16:08:34.041Z,71.43
2019-01-31T16:11:04.551Z,67.93
2019-01-31T16:13:35.337Z,67.20
2019-01-31T16:16:06.692Z,65.67
2019-01-31T16:18:37.143Z,71.70
2019-01-31T16:21:07.726Z,68.43
2019-01-31T16:23:39.261Z,69.00
2019-01-31T16:26:10.779Z,70.17
2019-01-31T16:28:41.301Z,69.93
2019-01-31T16:31:12.557Z,69.17
2019-01-31T16:33:43.612Z,68.30
2019-01-31T16:36:14.345Z,69.37
2019-01-31T16:38:45.659Z,70.40
2019-01-31T16:41:17.550Z,68.40
2019-01-31T16:43:48.164Z,72.80
2019-01-31T16:46:18.642Z,70.53
2019-01-31T16:48:49.441Z,70.20
2019-01-31T16:51:19.994Z,66.97
2019-01-31T16:53:50.517Z,68.60
2019-01-31T16:56:21.198Z,68.63
2019-01-31T16:58:52.412Z,72.73
2019-01-31T17:01:23.169Z,71.97
2019-01-31T17:03:53.776Z,72.27
2019-01-31T17:06:24.245Z,73.43
2019-01-31T17:08:54.919Z,74.73
2019-01-31T17:11:26.398Z,70.60
2019-01-31T17:13:57.057Z,75.73
2019-01-31T17:16:27.596Z,77.00
2019-01-31T17:18:58.118Z,75.90
2019-01-31T17:21:28.691Z,79.27
2019-01-31T17:23:59.574Z,82.37
2019-01-31T17:26:32.669Z,85.83
2019-01-31T17:29:03.315Z,81.30
2019-01-31T17:31:33.965Z,75.47
2019-01-31T17:34:04.845Z,83.57
2019-01-31T17:36:36.179Z,78.67
2019-01-31T17:39:08.570Z,67.07
2019-01-31T17:41:40.712Z,70.33
2019-01-31T17:44:11.125Z,75.47
2019-01-31T17:46:41.965Z,72.77
2019-01-31T17:49:13.084Z,80.87
2019-01-31T17:51:43.790Z,84.07
2019-01-31T17:54:14.318Z,84.73
2019-01-31T17:56:45.665Z,81.93
2019-01-31T17:59:16.676Z,85.00
2019-01-31T18:01:47.373Z,83.93
2019-01-31T18:04:17.897Z,83.13
2019-01-31T18:06:48.477Z,82.63
2019-01-31T18:09:19.072Z,83.77
2019-01-31T18:11:59.003Z,86.13
2019-01-31T18:14:29.987Z,85.43
2019-01-31T18:17:00.793Z,86.10
2019-01-31T18:19:31.385Z,83.27
2019-01-31T18:22:01.936Z,84.67
2019-01-31T18:24:32.559Z,80.57
2019-01-31T18:27:05.764Z,80.23
2019-01-31T18:29:36.919Z,77.83
2019-01-31T18:32:09.052Z,79.57
2019-01-31T18:34:40.162Z,79.07
2019-01-31T18:37:10.933Z,74.97
2019-01-31T18:39:42.615Z,75.77
2019-01-31T18:42:13.186Z,76.30
2019-01-31T18:44:43.931Z,75.80
2019-01-31T18:47:15.057Z,76.47
2019-01-31T18:49:45.866Z,70.13
2019-01-31T18:52:16.949Z,68.93
2019-01-31T18:54:49.373Z,74.20
2019-01-31T18:57:20.153Z,71.17
2019-01-31T18:59:52.470Z,68.27
2019-01-31T19:02:23.238Z,70.27
2019-01-31T19:04:54.334Z,70.30
2019-01-31T19:07:25.126Z,65.80
2019-01-31T19:09:55.779Z,68.77
2019-01-31T19:12:26.228Z,69.13
2019-01-31T19:14:56.965Z,73.17
2019-01-31T19:17:27.697Z,71.40
2019-01-31T19:19:58.741Z,71.50
2019-01-31T19:22:29.843Z,69.33
2019-01-31T19:25:01.014Z,77.00
2019-01-31T19:27:32.189Z,72.93
2019-01-31T19:30:04.539Z,69.83
2019-01-31T19:32:37.447Z,71.43
2019-01-31T19:35:12.790Z,71.00
2019-01-31T19:37:44.126Z,64.20
2019-01-31T19:40:19.071Z,63.53
2019-01-31T19:42:50.483Z,64.90
2019-01-31T19:45:25.555Z,63.87
2019-01-31T19:47:56.720Z,61.97
2019-01-31T19:50:27.918Z,62.83
2019-01-31T19:52:59.664Z,64.57
2019-01-31T19:55:30.753Z,64.97
2019-01-31T19:58:01.924Z,63.17
2019-01-31T20:03:37.315Z,68.67
2019-01-31T20:06:08.191Z,63.63
2019-01-31T20:08:39.490Z,62.70
2019-01-31T20:11:10.267Z,63.57
2019-01-31T20:13:43.837Z,63.50
2019-01-31T20:16:16.182Z,62.07
2019-01-31T20:18:46.694Z,61.37
2019-01-31T20:21:17.325Z,61.43
2019-01-31T20:23:48.017Z,62.07
2019-01-31T20:26:18.999Z,62.70
2019-01-31T20:28:53.496Z,63.17
2019-01-31T20:31:26.238Z,61.20
2019-01-31T20:33:57.685Z,60.40
2019-01-31T20:36:28.362Z,61.50
2019-01-31T20:38:59.249Z,60.60
2019-01-31T20:41:30.005Z,62.90
2019-01-31T20:44:00.424Z,59.90
2019-01-31T20:46:39.784Z,59.27
2019-01-31T20:57:58.410Z,56.27
2019-01-31T21:00:35.632Z,59.20
2019-01-31T21:03:06.605Z,57.00
2019-01-31T21:05:37.869Z,58.27
2019-01-31T21:08:10.747Z,57.40
2019-01-31T21:10:42.330Z,54.80
2019-01-31T21:13:13.705Z,58.50
2019-01-31T21:15:44.378Z,56.97
2019-01-31T21:18:15.023Z,58.00
2019-01-31T21:20:45.593Z,55.70
2019-01-31T21:23:16.578Z,54.53
2019-01-31T21:25:47.251Z,54.57
2019-01-31T21:28:17.940Z,55.47
2019-01-31T21:30:49.091Z,54.90
2019-01-31T21:33:20.530Z,59.07
2019-01-31T21:35:51.188Z,55.53
2019-01-31T22:51:23.873Z,49.03
2019-01-31T22:53:54.622Z,48.90
2019-01-31T22:56:26.898Z,50.00
2019-01-31T22:58:58.513Z,50.80
2019-01-31T23:01:39.265Z,50.00
2019-01-31T23:04:10.721Z,49.80
2019-01-31T23:06:42.341Z,48.13
2019-01-31T23:09:13.918Z,46.93
2019-01-31T23:11:44.662Z,48.90
2019-01-31T23:14:15.748Z,48.27
2019-01-31T23:16:47.118Z,48.60
2019-01-31T23:19:20.019Z,48.93
2019-01-31T23:21:51.486Z,48.43
2019-01-31T23:24:22.789Z,45.97
2019-01-31T23:26:54.012Z,48.27
2019-01-31T23:29:25.389Z,47.27
2019-01-31T23:31:56.681Z,49.00
2019-01-31T23:34:27.475Z,49.20
2019-01-31T23:36:59.078Z,47.87
2019-01-31T23:39:30.619Z,45.47
2019-01-31T23:42:15.108Z,47.10
2019-01-31T23:44:46.363Z,46.80
2019-01-31T23:47:17.689Z,46.00
2019-01-31T23:49:52.126Z,46.83
2019-01-31T23:52:32.844Z,47.50
2019-01-31T23:55:06.812Z,48.97
2019-01-31T23:57:39.043Z,48.47
